Kirsten Marie — WDH5787 — position and weather

sailwx.info

Track history (hours):
 
Tides and Currents Weather Stations Pressure Air Temp Water Temp Dewpoint Dewpoint Depression Visibility Wind Speed Wind Dir Waves Ship Positions

Kirsten Marie

Owner: Kirsten Marie Tendering LLC, Sweet, ID. More information available from US FCC via Universal Licensing System and Coast Guard Vessel Documentation Center.

Last reported at 2018-May-30 07:43 UTC. Time now 2018-Jun-20 11:38 UTC.
Position N 54°37' W 130°45'.
Warning: this ship's position is 21 days out of date.

Length 32 m; draft 4 m.

Type: Fishing. MMSI: 367631480.

Date/timePositionNaut miles runAvg speedWind from/ knotsBaromVisibWave heightAir tempDewpointWater temp
2018-May-30 07:43N 54°37' W 130°45'2 9.6
2018-May-30 07:31N 54°35' W 130°44'6 9.7
2018-May-30 06:53N 54°29' W 130°41'4 9.6
2018-May-30 06:30N 54°26' W 130°39'5 9.2
2018-May-30 06:00N 54°21' W 130°36'4 8.9
2018-May-30 05:30N 54°17' W 130°33'5 9.1
2018-May-30 05:00N 54°13' W 130°29'510.1
2018-May-30 04:30N 54°09' W 130°25'5 9.5
2018-May-30 04:00N 54°05' W 130°19'5 9.7
2018-May-30 03:30N 54°02' W 130°14'5 9.8
2018-May-30 03:00N 53°57' W 130°12'4 8.3
2018-May-30 02:30N 53°54' W 130°07'4 8.8
2018-May-30 02:00N 53°51' W 130°02'89 7.8
2018-May-29 14:42N 52°40' W 128°32'2 7.7
2018-May-29 14:28N 52°38' W 128°31'4 8.4
2018-May-29 13:56N 52°34' W 128°29'4 8.4
2018-May-29 13:29N 52°30' W 128°28'4 8.2
2018-May-29 13:00N 52°27' W 128°28'4 8.2
2018-May-29 12:30N 52°23' W 128°31'4 8.2
2018-May-29 12:01N 52°19' W 128°30'5 9.6
2018-May-29 11:30N 52°16' W 128°24'5 9.8
2018-May-29 11:01N 52°15' W 128°16'4 8.7
2018-May-29 10:30N 52°13' W 128°09'3 6.5
2018-May-29 10:01N 52°10' W 128°08'4 8.0
2018-May-29 09:31N 52°06' W 128°07'4 7.7
2018-May-29 08:59N 52°05' W 128°01'4 8.1
2018-May-29 08:31N 52°03' W 127°56'4 7.9
2018-May-29 08:01N 51°59' W 127°56'4 8.2
2018-May-29 07:31N 51°55' W 127°56'4 8.7
2018-May-29 07:00N 51°50' W 127°56'4 8.7
2018-May-29 06:30N 51°46' W 127°55'4 8.5
2018-May-29 06:01N 51°42' W 127°55'4 8.5
2018-May-29 05:31N 51°38' W 127°54'4 8.3
2018-May-29 05:01N 51°34' W 127°52'4 8.2
2018-May-29 04:31N 51°30' W 127°50'4 7.7
2018-May-29 04:00N 51°26' W 127°50'4 8.4
2018-May-29 03:30N 51°22' W 127°51'5 8.5
2018-May-29 02:54N 51°17' W 127°52'108 8.1
2018-May-28 13:41N 50°21' W 125°26'210.0
2018-May-28 13:29N 50°19' W 125°25'510.1
2018-May-28 13:00N 50°14' W 125°23'5 9.9
2018-May-28 12:30N 50°09' W 125°21'4 8.4
2018-May-28 12:00N 50°06' W 125°18'4 8.1
2018-May-28 11:30N 50°03' W 125°14'3 6.5
2018-May-28 11:00N 49°59' W 125°12'3 6.7
2018-May-28 10:29N 49°57' W 125°08'4 8.3
2018-May-28 10:01N 49°55' W 125°04'4 8.8
2018-May-28 09:30N 49°52' W 124°58'4 8.8
2018-May-28 09:01N 49°49' W 124°53'4 8.6
2018-May-28 08:30N 49°46' W 124°48'4 8.4
2018-May-28 08:00N 49°44' W 124°43'4 8.3
2018-May-28 07:30N 49°41' W 124°38'4 7.9
2018-May-28 06:57N 49°39' W 124°32'3 7.2
2018-May-28 06:30N 49°37' W 124°28'51 8.6
2018-May-28 00:34N 49°06' W 123°26'2 9.6
2018-May-28 00:24N 49°05' W 123°24'12 9.0
2018-May-27 23:03N 48°57' W 123°10'1 8.7
2018-May-27 22:59N 48°57' W 123°09'5 8.8
2018-May-27 22:25N 48°53' W 123°04'14 8.5
2018-May-27 20:49N 48°46' W 122°47'3 9.8
2018-May-27 20:30N 48°43' W 122°44'4 9.0
2018-May-27 20:00N 48°39' W 122°43'5 9.3
2018-May-27 19:30N 48°34' W 122°45'4 8.2
2018-May-27 19:00N 48°30' W 122°44'4 8.3
2018-May-27 18:30N 48°26' W 122°44'25 8.8
2018-May-27 15:38N 48°01' W 122°37'212.0
2018-May-27 15:27N 47°59' W 122°35'511.4
2018-May-27 15:00N 47°56' W 122°29'510.1
2018-May-27 14:30N 47°51' W 122°28'5 9.1
2018-May-27 14:00N 47°46' W 122°26'5 9.1
2018-May-27 13:30N 47°42' W 122°26'2 4.7
2018-May-27 13:01N 47°40' W 122°24'1 1.3
2018-May-27 12:30N 47°40' W 122°23'0 0.0
2018-May-25 16:01N 47°40' W 122°23'0 0.0
2018-May-25 16:01N 47°40' W 122°23'0 0.1
2018-May-25 15:30N 47°40' W 122°23'0 0.9
2018-May-25 15:00N 47°40' W 122°23'0 0.0
2018-May-25 14:31N 47°40' W 122°23'0 0.0
2018-May-25 14:00N 47°40' W 122°23'0 0.0
2018-May-25 13:30N 47°40' W 122°23'0 0.1
2018-May-25 13:01N 47°40' W 122°23'0 0.1
2018-May-25 12:30N 47°40' W 122°23'0 0.0
2018-May-25 12:00N 47°40' W 122°23'0 0.0
2018-May-25 11:31N 47°40' W 122°23'0 0.0
2018-May-25 11:00N 47°40' W 122°23'0 0.0
2018-May-25 10:30N 47°40' W 122°23'0 0.0
2018-May-25 10:00N 47°40' W 122°23'0 0.0
2018-May-25 09:31N 47°40' W 122°23'0 0.0
2018-May-25 09:01N 47°40' W 122°23'0 0.0
2018-May-25 08:30N 47°40' W 122°23'0 0.0
2018-May-25 08:01N 47°40' W 122°23'0 0.0
2018-May-25 07:30N 47°40' W 122°23'0 0.0
2018-May-25 07:00N 47°40' W 122°23'0 0.0
2018-May-25 06:31N 47°40' W 122°23'0 0.0
2018-May-25 06:00N 47°40' W 122°23'0 0.1
2018-May-25 05:31N 47°40' W 122°23'0 0.1
2018-May-25 05:01N 47°40' W 122°23'0 0.0
2018-May-25 04:31N 47°40' W 122°23'0 0.0
2018-May-25 04:00N 47°40' W 122°23'0 0.0
2018-May-25 03:30N 47°40' W 122°23'0 0.0
2018-May-25 03:00N 47°40' W 122°23'0 0.0
2018-May-25 02:31N 47°40' W 122°23'0 0.0
2018-May-25 02:01N 47°40' W 122°23'0 0.0
2018-May-25 01:31N 47°40' W 122°23'0 0.0
2018-May-25 01:01N 47°40' W 122°23'1 1.0
2018-May-25 00:31N 47°40' W 122°23'0 0.0
2018-May-25 00:01N 47°40' W 122°23'  
Track history (hours):
 
Tides and Currents Weather Stations Pressure Air Temp Water Temp Dewpoint Dewpoint Depression Visibility Wind Speed Wind Dir Waves Ship Positions

Kirsten Marie

Owner: Kirsten Marie Tendering LLC, Sweet, ID. More information available from US FCC via Universal Licensing System and Coast Guard Vessel Documentation Center.

Last reported at 2018-May-30 07:43 UTC. Time now 2018-Jun-20 11:38 UTC.
Position N 54°37' W 130°45'.
Warning: this ship's position is 21 days out of date.

Length 32 m; draft 4 m.

Type: Fishing. MMSI: 367631480.

Date/timePositionNaut miles runAvg speedWind from/ knotsBaromVisibWave heightAir tempDewpointWater temp
2018-May-30 07:43N 54°37' W 130°45'2 9.6
2018-May-30 07:31N 54°35' W 130°44'6 9.7
2018-May-30 06:53N 54°29' W 130°41'4 9.6
2018-May-30 06:30N 54°26' W 130°39'5 9.2
2018-May-30 06:00N 54°21' W 130°36'4 8.9
2018-May-30 05:30N 54°17' W 130°33'5 9.1
2018-May-30 05:00N 54°13' W 130°29'510.1
2018-May-30 04:30N 54°09' W 130°25'5 9.5
2018-May-30 04:00N 54°05' W 130°19'5 9.7
2018-May-30 03:30N 54°02' W 130°14'5 9.8
2018-May-30 03:00N 53°57' W 130°12'4 8.3
2018-May-30 02:30N 53°54' W 130°07'4 8.8
2018-May-30 02:00N 53°51' W 130°02'89 7.8
2018-May-29 14:42N 52°40' W 128°32'2 7.7
2018-May-29 14:28N 52°38' W 128°31'4 8.4
2018-May-29 13:56N 52°34' W 128°29'4 8.4
2018-May-29 13:29N 52°30' W 128°28'4 8.2
2018-May-29 13:00N 52°27' W 128°28'4 8.2
2018-May-29 12:30N 52°23' W 128°31'4 8.2
2018-May-29 12:01N 52°19' W 128°30'5 9.6
2018-May-29 11:30N 52°16' W 128°24'5 9.8
2018-May-29 11:01N 52°15' W 128°16'4 8.7
2018-May-29 10:30N 52°13' W 128°09'3 6.5
2018-May-29 10:01N 52°10' W 128°08'4 8.0
2018-May-29 09:31N 52°06' W 128°07'4 7.7
2018-May-29 08:59N 52°05' W 128°01'4 8.1
2018-May-29 08:31N 52°03' W 127°56'4 7.9
2018-May-29 08:01N 51°59' W 127°56'4 8.2
2018-May-29 07:31N 51°55' W 127°56'4 8.7
2018-May-29 07:00N 51°50' W 127°56'4 8.7
2018-May-29 06:30N 51°46' W 127°55'4 8.5
2018-May-29 06:01N 51°42' W 127°55'4 8.5
2018-May-29 05:31N 51°38' W 127°54'4 8.3
2018-May-29 05:01N 51°34' W 127°52'4 8.2
2018-May-29 04:31N 51°30' W 127°50'4 7.7
2018-May-29 04:00N 51°26' W 127°50'4 8.4
2018-May-29 03:30N 51°22' W 127°51'5 8.5
2018-May-29 02:54N 51°17' W 127°52'108 8.1
2018-May-28 13:41N 50°21' W 125°26'210.0
2018-May-28 13:29N 50°19' W 125°25'510.1
2018-May-28 13:00N 50°14' W 125°23'5 9.9
2018-May-28 12:30N 50°09' W 125°21'4 8.4
2018-May-28 12:00N 50°06' W 125°18'4 8.1
2018-May-28 11:30N 50°03' W 125°14'3 6.5
2018-May-28 11:00N 49°59' W 125°12'3 6.7
2018-May-28 10:29N 49°57' W 125°08'4 8.3
2018-May-28 10:01N 49°55' W 125°04'4 8.8
2018-May-28 09:30N 49°52' W 124°58'4 8.8
2018-May-28 09:01N 49°49' W 124°53'4 8.6
2018-May-28 08:30N 49°46' W 124°48'4 8.4
2018-May-28 08:00N 49°44' W 124°43'4 8.3
2018-May-28 07:30N 49°41' W 124°38'4 7.9
2018-May-28 06:57N 49°39' W 124°32'3 7.2
2018-May-28 06:30N 49°37' W 124°28'51 8.6
2018-May-28 00:34N 49°06' W 123°26'2 9.6
2018-May-28 00:24N 49°05' W 123°24'12 9.0
2018-May-27 23:03N 48°57' W 123°10'1 8.7
2018-May-27 22:59N 48°57' W 123°09'5 8.8
2018-May-27 22:25N 48°53' W 123°04'14 8.5
2018-May-27 20:49N 48°46' W 122°47'3 9.8
2018-May-27 20:30N 48°43' W 122°44'4 9.0
2018-May-27 20:00N 48°39' W 122°43'5 9.3
2018-May-27 19:30N 48°34' W 122°45'4 8.2
2018-May-27 19:00N 48°30' W 122°44'4 8.3
2018-May-27 18:30N 48°26' W 122°44'25 8.8
2018-May-27 15:38N 48°01' W 122°37'212.0
2018-May-27 15:27N 47°59' W 122°35'511.4
2018-May-27 15:00N 47°56' W 122°29'510.1
2018-May-27 14:30N 47°51' W 122°28'5 9.1
2018-May-27 14:00N 47°46' W 122°26'5 9.1
2018-May-27 13:30N 47°42' W 122°26'2 4.7
2018-May-27 13:01N 47°40' W 122°24'1 1.3
2018-May-27 12:30N 47°40' W 122°23'0 0.0
2018-May-25 16:01N 47°40' W 122°23'0 0.0
2018-May-25 16:01N 47°40' W 122°23'0 0.1
2018-May-25 15:30N 47°40' W 122°23'0 0.9
2018-May-25 15:00N 47°40' W 122°23'0 0.0
2018-May-25 14:31N 47°40' W 122°23'0 0.0
2018-May-25 14:00N 47°40' W 122°23'0 0.0
2018-May-25 13:30N 47°40' W 122°23'0 0.1
2018-May-25 13:01N 47°40' W 122°23'0 0.1
2018-May-25 12:30N 47°40' W 122°23'0 0.0
2018-May-25 12:00N 47°40' W 122°23'0 0.0
2018-May-25 11:31N 47°40' W 122°23'0 0.0
2018-May-25 11:00N 47°40' W 122°23'0 0.0
2018-May-25 10:30N 47°40' W 122°23'0 0.0
2018-May-25 10:00N 47°40' W 122°23'0 0.0
2018-May-25 09:31N 47°40' W 122°23'0 0.0
2018-May-25 09:01N 47°40' W 122°23'0 0.0
2018-May-25 08:30N 47°40' W 122°23'0 0.0
2018-May-25 08:01N 47°40' W 122°23'0 0.0
2018-May-25 07:30N 47°40' W 122°23'0 0.0
2018-May-25 07:00N 47°40' W 122°23'0 0.0
2018-May-25 06:31N 47°40' W 122°23'0 0.0
2018-May-25 06:00N 47°40' W 122°23'0 0.1
2018-May-25 05:31N 47°40' W 122°23'0 0.1
2018-May-25 05:01N 47°40' W 122°23'0 0.0
2018-May-25 04:31N 47°40' W 122°23'0 0.0
2018-May-25 04:00N 47°40' W 122°23'0 0.0
2018-May-25 03:30N 47°40' W 122°23'0 0.0
2018-May-25 03:00N 47°40' W 122°23'0 0.0
2018-May-25 02:31N 47°40' W 122°23'0 0.0
2018-May-25 02:01N 47°40' W 122°23'0 0.0
2018-May-25 01:31N 47°40' W 122°23'0 0.0
2018-May-25 01:01N 47°40' W 122°23'1 1.0
2018-May-25 00:31N 47°40' W 122°23'0 0.0
2018-May-25 00:01N 47°40' W 122°23'  

Dump ship's entire track history